sensor_id;sensor_type;location;lat;lon;timestamp;temperature;humidity
8422;DHT22;4248;48.196;10.924;2024-03-08T00:01:39;1.40;63.20
8422;DHT22;4248;48.196;10.924;2024-03-08T00:04:06;1.40;63.60
8422;DHT22;4248;48.196;10.924;2024-03-08T00:06:32;1.40;63.60
8422;DHT22;4248;48.196;10.924;2024-03-08T00:08:57;1.30;63.50
8422;DHT22;4248;48.196;10.924;2024-03-08T00:11:23;1.30;63.80
8422;DHT22;4248;48.196;10.924;2024-03-08T00:13:52;1.30;63.90
8422;DHT22;4248;48.196;10.924;2024-03-08T00:16:18;1.30;64.10
8422;DHT22;4248;48.196;10.924;2024-03-08T00:18:45;1.30;63.90
8422;DHT22;4248;48.196;10.924;2024-03-08T00:21:10;1.30;63.90
8422;DHT22;4248;48.196;10.924;2024-03-08T00:23:37;1.20;63.70
8422;DHT22;4248;48.196;10.924;2024-03-08T00:26:03;1.20;63.70
8422;DHT22;4248;48.196;10.924;2024-03-08T00:28:31;1.20;63.70
8422;DHT22;4248;48.196;10.924;2024-03-08T00:30:57;1.20;63.90
8422;DHT22;4248;48.196;10.924;2024-03-08T00:33:22;1.20;64.10
8422;DHT22;4248;48.196;10.924;2024-03-08T00:35:48;1.20;64.10
8422;DHT22;4248;48.196;10.924;2024-03-08T00:38:14;1.20;64.30
8422;DHT22;4248;48.196;10.924;2024-03-08T00:40:39;1.20;64.40
8422;DHT22;4248;48.196;10.924;2024-03-08T00:43:06;1.20;64.50
8422;DHT22;4248;48.196;10.924;2024-03-08T00:45:31;1.20;64.70
8422;DHT22;4248;48.196;10.924;2024-03-08T00:47:57;1.10;64.70
8422;DHT22;4248;48.196;10.924;2024-03-08T00:50:22;1.10;64.80
8422;DHT22;4248;48.196;10.924;2024-03-08T00:52:48;1.10;64.80
8422;DHT22;4248;48.196;10.924;2024-03-08T00:55:14;1.00;64.80
8422;DHT22;4248;48.196;10.924;2024-03-08T00:57:39;1.10;65.00
8422;DHT22;4248;48.196;10.924;2024-03-08T01:00:06;1.10;64.90
8422;DHT22;4248;48.196;10.924;2024-03-08T01:02:35;1.00;64.70
8422;DHT22;4248;48.196;10.924;2024-03-08T01:05:01;1.00;64.70
8422;DHT22;4248;48.196;10.924;2024-03-08T01:07:27;1.00;64.70
8422;DHT22;4248;48.196;10.924;2024-03-08T01:09:52;1.00;64.80
8422;DHT22;4248;48.196;10.924;2024-03-08T01:12:18;1.00;64.80
8422;DHT22;4248;48.196;10.924;2024-03-08T01:14:43;1.00;64.80
8422;DHT22;4248;48.196;10.924;2024-03-08T01:17:09;1.00;64.90
8422;DHT22;4248;48.196;10.924;2024-03-08T01:19:35;0.90;64.80
8422;DHT22;4248;48.196;10.924;2024-03-08T01:22:00;0.90;64.80
8422;DHT22;4248;48.196;10.924;2024-03-08T01:24:26;0.90;64.70
8422;DHT22;4248;48.196;10.924;2024-03-08T01:26:51;0.90;65.00
8422;DHT22;4248;48.196;10.924;2024-03-08T01:29:17;0.90;65.00
8422;DHT22;4248;48.196;10.924;2024-03-08T01:31:42;0.90;65.00
8422;DHT22;4248;48.196;10.924;2024-03-08T01:34:08;0.80;65.00
8422;DHT22;4248;48.196;10.924;2024-03-08T01:36:33;0.80;65.00
8422;DHT22;4248;48.196;10.924;2024-03-08T01:38:59;0.80;65.10
8422;DHT22;4248;48.196;10.924;2024-03-08T01:41:25;0.80;65.10
8422;DHT22;4248;48.196;10.924;2024-03-08T01:43:50;0.80;65.20
8422;DHT22;4248;48.196;10.924;2024-03-08T01:46:18;0.80;65.10
8422;DHT22;4248;48.196;10.924;2024-03-08T01:48:45;0.80;65.20
8422;DHT22;4248;48.196;10.924;2024-03-08T01:51:11;0.70;65.20
8422;DHT22;4248;48.196;10.924;2024-03-08T01:53:37;0.70;65.30
8422;DHT22;4248;48.196;10.924;2024-03-08T01:56:03;0.70;65.30
8422;DHT22;4248;48.196;10.924;2024-03-08T01:58:30;0.70;65.30
8422;DHT22;4248;48.196;10.924;2024-03-08T02:00:59;0.70;65.20
8422;DHT22;4248;48.196;10.924;2024-03-08T02:03:25;0.70;65.20
8422;DHT22;4248;48.196;10.924;2024-03-08T02:05:51;0.70;65.10
8422;DHT22;4248;48.196;10.924;2024-03-08T02:08:20;0.60;65.00
8422;DHT22;4248;48.196;10.924;2024-03-08T02:10:48;0.60;65.20
8422;DHT22;4248;48.196;10.924;2024-03-08T02:13:14;0.60;65.20
8422;DHT22;4248;48.196;10.924;2024-03-08T02:15:59;0.60;65.20
8422;DHT22;4248;48.196;10.924;2024-03-08T02:18:26;0.60;65.30
8422;DHT22;4248;48.196;10.924;2024-03-08T02:20:59;0.60;65.20
8422;DHT22;4248;48.196;10.924;2024-03-08T02:23:26;0.60;65.20
8422;DHT22;4248;48.196;10.924;2024-03-08T02:25:52;0.60;65.20
8422;DHT22;4248;48.196;10.924;2024-03-08T02:28:19;0.50;65.10
8422;DHT22;4248;48.196;10.924;2024-03-08T02:30:48;0.50;65.10
8422;DHT22;4248;48.196;10.924;2024-03-08T02:33:15;0.50;65.00
8422;DHT22;4248;48.196;10.924;2024-03-08T02:35:44;0.50;65.00
8422;DHT22;4248;48.196;10.924;2024-03-08T02:38:17;0.50;65.00
8422;DHT22;4248;48.196;10.924;2024-03-08T02:40:59;0.50;64.90
8422;DHT22;4248;48.196;10.924;2024-03-08T02:43:24;0.50;64.90
8422;DHT22;4248;48.196;10.924;2024-03-08T02:45:50;0.50;65.00
8422;DHT22;4248;48.196;10.924;2024-03-08T02:48:18;0.50;65.00
8422;DHT22;4248;48.196;10.924;2024-03-08T02:50:44;0.50;65.10
8422;DHT22;4248;48.196;10.924;2024-03-08T02:53:10;0.50;65.20
8422;DHT22;4248;48.196;10.924;2024-03-08T02:56:14;0.50;65.20
8422;DHT22;4248;48.196;10.924;2024-03-08T02:58:42;0.50;65.20
8422;DHT22;4248;48.196;10.924;2024-03-08T03:01:08;0.40;65.10
8422;DHT22;4248;48.196;10.924;2024-03-08T03:03:35;0.40;65.10
8422;DHT22;4248;48.196;10.924;2024-03-08T03:06:01;0.50;65.20
8422;DHT22;4248;48.196;10.924;2024-03-08T03:08:26;0.40;65.00
8422;DHT22;4248;48.196;10.924;2024-03-08T03:10:52;0.40;65.00
8422;DHT22;4248;48.196;10.924;2024-03-08T03:13:18;0.40;64.90
8422;DHT22;4248;48.196;10.924;2024-03-08T03:15:46;0.40;65.10
8422;DHT22;4248;48.196;10.924;2024-03-08T03:18:11;0.30;65.00
8422;DHT22;4248;48.196;10.924;2024-03-08T03:20:37;0.40;64.90
8422;DHT22;4248;48.196;10.924;2024-03-08T03:23:06;0.30;64.80
8422;DHT22;4248;48.196;10.924;2024-03-08T03:25:34;0.30;64.80
8422;DHT22;4248;48.196;10.924;2024-03-08T03:28:01;0.30;64.70
8422;DHT22;4248;48.196;10.924;2024-03-08T03:30:27;0.40;64.90
8422;DHT22;4248;48.196;10.924;2024-03-08T03:32:56;0.30;64.80
8422;DHT22;4248;48.196;10.924;2024-03-08T03:35:24;0.20;64.80
8422;DHT22;4248;48.196;10.924;2024-03-08T03:37:49;0.30;65.00
8422;DHT22;4248;48.196;10.924;2024-03-08T03:40:37;0.30;64.80
8422;DHT22;4248;48.196;10.924;2024-03-08T03:43:03;0.30;64.90
8422;DHT22;4248;48.196;10.924;2024-03-08T03:45:29;0.30;64.90
8422;DHT22;4248;48.196;10.924;2024-03-08T03:47:55;0.20;64.90
8422;DHT22;4248;48.196;10.924;2024-03-08T03:50:21;0.20;65.30
8422;DHT22;4248;48.196;10.924;2024-03-08T03:52:47;0.20;64.80
8422;DHT22;4248;48.196;10.924;2024-03-08T03:55:14;0.20;64.90
8422;DHT22;4248;48.196;10.924;2024-03-08T03:57:40;0.20;65.00
8422;DHT22;4248;48.196;10.924;2024-03-08T04:00:07;0.20;65.00
8422;DHT22;4248;48.196;10.924;2024-03-08T04:02:36;0.10;64.90
8422;DHT22;4248;48.196;10.924;2024-03-08T04:05:03;0.20;65.00
8422;DHT22;4248;48.196;10.924;2024-03-08T04:07:29;0.20;65.00
8422;DHT22;4248;48.196;10.924;2024-03-08T04:09:54;0.20;64.80
8422;DHT22;4248;48.196;10.924;2024-03-08T04:12:20;0.20;64.90
8422;DHT22;4248;48.196;10.924;2024-03-08T04:14:45;0.10;64.80
8422;DHT22;4248;48.196;10.924;2024-03-08T04:17:11;0.20;65.00
8422;DHT22;4248;48.196;10.924;2024-03-08T04:19:37;0.10;64.80
8422;DHT22;4248;48.196;10.924;2024-03-08T04:22:03;0.20;64.90
8422;DHT22;4248;48.196;10.924;2024-03-08T04:24:29;0.10;64.90
8422;DHT22;4248;48.196;10.924;2024-03-08T04:26:56;0.10;65.00
8422;DHT22;4248;48.196;10.924;2024-03-08T04:29:23;0.20;65.20
8422;DHT22;4248;48.196;10.924;2024-03-08T04:31:48;0.10;65.10
8422;DHT22;4248;48.196;10.924;2024-03-08T04:34:14;0.10;65.20
8422;DHT22;4248;48.196;10.924;2024-03-08T04:36:40;0.10;65.10
8422;DHT22;4248;48.196;10.924;2024-03-08T04:39:05;0.10;65.00
8422;DHT22;4248;48.196;10.924;2024-03-08T04:41:31;0.20;65.00
8422;DHT22;4248;48.196;10.924;2024-03-08T04:43:59;0.10;64.90
8422;DHT22;4248;48.196;10.924;2024-03-08T04:46:25;0.20;65.00
8422;DHT22;4248;48.196;10.924;2024-03-08T04:48:50;0.30;64.80
8422;DHT22;4248;48.196;10.924;2024-03-08T04:51:16;0.30;64.90
8422;DHT22;4248;48.196;10.924;2024-03-08T04:53:42;0.40;64.60
8422;DHT22;4248;48.196;10.924;2024-03-08T04:56:07;0.50;64.50
8422;DHT22;4248;48.196;10.924;2024-03-08T04:58:35;0.60;64.50
8422;DHT22;4248;48.196;10.924;2024-03-08T05:01:01;0.70;64.20
8422;DHT22;4248;48.196;10.924;2024-03-08T05:03:27;0.80;63.70
8422;DHT22;4248;48.196;10.924;2024-03-08T05:05:53;1.00;63.40
8422;DHT22;4248;48.196;10.924;2024-03-08T05:08:18;1.10;62.90
8422;DHT22;4248;48.196;10.924;2024-03-08T05:10:45;1.20;62.80
8422;DHT22;4248;48.196;10.924;2024-03-08T05:13:12;1.30;62.80
8422;DHT22;4248;48.196;10.924;2024-03-08T05:15:38;1.30;62.80
8422;DHT22;4248;48.196;10.924;2024-03-08T05:18:04;1.30;62.70
8422;DHT22;4248;48.196;10.924;2024-03-08T05:20:30;1.40;62.70
8422;DHT22;4248;48.196;10.924;2024-03-08T05:22:56;1.40;62.70
8422;DHT22;4248;48.196;10.924;2024-03-08T05:25:24;1.50;62.60
8422;DHT22;4248;48.196;10.924;2024-03-08T05:27:49;1.50;62.70
8422;DHT22;4248;48.196;10.924;2024-03-08T05:30:15;1.60;62.60
8422;DHT22;4248;48.196;10.924;2024-03-08T05:32:44;1.60;62.50
8422;DHT22;4248;48.196;10.924;2024-03-08T05:35:11;1.80;63.60
8422;DHT22;4248;48.196;10.924;2024-03-08T05:37:40;1.80;62.30
8422;DHT22;4248;48.196;10.924;2024-03-08T05:40:06;1.70;62.60
8422;DHT22;4248;48.196;10.924;2024-03-08T05:42:37;1.60;62.90
8422;DHT22;4248;48.196;10.924;2024-03-08T05:45:06;1.70;62.80
8422;DHT22;4248;48.196;10.924;2024-03-08T05:47:32;1.60;63.10
8422;DHT22;4248;48.196;10.924;2024-03-08T05:49:59;1.70;64.50
8422;DHT22;4248;48.196;10.924;2024-03-08T05:52:24;1.70;63.40
8422;DHT22;4248;48.196;10.924;2024-03-08T05:54:51;1.60;63.30
8422;DHT22;4248;48.196;10.924;2024-03-08T05:57:17;1.70;63.10
8422;DHT22;4248;48.196;10.924;2024-03-08T05:59:43;1.70;62.90
8422;DHT22;4248;48.196;10.924;2024-03-08T06:02:08;1.70;63.20
8422;DHT22;4248;48.196;10.924;2024-03-08T06:04:34;1.70;63.30
8422;DHT22;4248;48.196;10.924;2024-03-08T06:06:59;1.70;63.10
8422;DHT22;4248;48.196;10.924;2024-03-08T06:09:25;1.70;63.00
8422;DHT22;4248;48.196;10.924;2024-03-08T06:11:52;1.80;63.10
8422;DHT22;4248;48.196;10.924;2024-03-08T06:14:19;1.80;62.90
8422;DHT22;4248;48.196;10.924;2024-03-08T06:16:45;1.80;62.80
8422;DHT22;4248;48.196;10.924;2024-03-08T06:19:11;1.90;62.80
8422;DHT22;4248;48.196;10.924;2024-03-08T06:21:37;2.00;62.50
8422;DHT22;4248;48.196;10.924;2024-03-08T06:24:03;1.90;62.40
8422;DHT22;4248;48.196;10.924;2024-03-08T06:26:28;1.90;62.70
8422;DHT22;4248;48.196;10.924;2024-03-08T06:28:54;1.90;62.80
8422;DHT22;4248;48.196;10.924;2024-03-08T06:31:20;1.80;62.80
8422;DHT22;4248;48.196;10.924;2024-03-08T06:33:46;1.90;62.80
8422;DHT22;4248;48.196;10.924;2024-03-08T06:36:11;1.90;62.50
8422;DHT22;4248;48.196;10.924;2024-03-08T06:38:39;1.90;62.50
8422;DHT22;4248;48.196;10.924;2024-03-08T06:41:11;1.80;62.60
8422;DHT22;4248;48.196;10.924;2024-03-08T06:43:44;1.80;62.70
8422;DHT22;4248;48.196;10.924;2024-03-08T06:46:11;1.90;62.60
8422;DHT22;4248;48.196;10.924;2024-03-08T06:48:39;1.80;62.50
8422;DHT22;4248;48.196;10.924;2024-03-08T06:51:05;1.80;62.60
8422;DHT22;4248;48.196;10.924;2024-03-08T06:53:31;1.80;62.90
8422;DHT22;4248;48.196;10.924;2024-03-08T06:55:58;1.90;62.70
8422;DHT22;4248;48.196;10.924;2024-03-08T06:58:24;2.00;62.70
8422;DHT22;4248;48.196;10.924;2024-03-08T07:00:49;2.10;62.30
8422;DHT22;4248;48.196;10.924;2024-03-08T07:03:18;2.20;61.90
8422;DHT22;4248;48.196;10.924;2024-03-08T07:05:44;2.20;61.60
8422;DHT22;4248;48.196;10.924;2024-03-08T07:08:10;2.10;61.50
8422;DHT22;4248;48.196;10.924;2024-03-08T07:10:39;2.10;61.90
8422;DHT22;4248;48.196;10.924;2024-03-08T07:13:07;2.20;61.90
8422;DHT22;4248;48.196;10.924;2024-03-08T07:15:33;2.20;61.80
8422;DHT22;4248;48.196;10.924;2024-03-08T07:17:58;2.20;61.60
8422;DHT22;4248;48.196;10.924;2024-03-08T07:20:25;2.30;61.50
8422;DHT22;4248;48.196;10.924;2024-03-08T07:22:50;2.40;61.40
8422;DHT22;4248;48.196;10.924;2024-03-08T07:25:16;2.40;61.10
8422;DHT22;4248;48.196;10.924;2024-03-08T07:27:52;2.40;61.10
8422;DHT22;4248;48.196;10.924;2024-03-08T07:30:19;2.40;61.00
8422;DHT22;4248;48.196;10.924;2024-03-08T07:33:17;2.50;61.10
8422;DHT22;4248;48.196;10.924;2024-03-08T07:35:42;2.50;60.70
8422;DHT22;4248;48.196;10.924;2024-03-08T07:38:09;2.50;60.70
8422;DHT22;4248;48.196;10.924;2024-03-08T07:40:39;2.60;60.60
8422;DHT22;4248;48.196;10.924;2024-03-08T07:43:09;2.60;60.40
8422;DHT22;4248;48.196;10.924;2024-03-08T07:45:36;2.70;60.30
8422;DHT22;4248;48.196;10.924;2024-03-08T07:48:02;2.70;60.20
8422;DHT22;4248;48.196;10.924;2024-03-08T07:50:28;2.50;60.10
8422;DHT22;4248;48.196;10.924;2024-03-08T07:52:54;2.50;60.50
8422;DHT22;4248;48.196;10.924;2024-03-08T07:55:20;2.60;60.40
8422;DHT22;4248;48.196;10.924;2024-03-08T07:57:49;2.60;60.30
8422;DHT22;4248;48.196;10.924;2024-03-08T08:00:15;2.70;60.40
8422;DHT22;4248;48.196;10.924;2024-03-08T08:02:46;2.60;60.10
8422;DHT22;4248;48.196;10.924;2024-03-08T08:05:12;2.60;60.00
8422;DHT22;4248;48.196;10.924;2024-03-08T08:07:37;2.60;60.20
8422;DHT22;4248;48.196;10.924;2024-03-08T08:10:03;2.70;60.00
8422;DHT22;4248;48.196;10.924;2024-03-08T08:12:31;2.80;60.00
8422;DHT22;4248;48.196;10.924;2024-03-08T08:14:59;2.80;59.40
8422;DHT22;4248;48.196;10.924;2024-03-08T08:17:25;3.00;59.40
8422;DHT22;4248;48.196;10.924;2024-03-08T08:19:51;3.00;58.50
8422;DHT22;4248;48.196;10.924;2024-03-08T08:22:16;3.00;58.50
8422;DHT22;4248;48.196;10.924;2024-03-08T08:24:43;3.00;58.60
8422;DHT22;4248;48.196;10.924;2024-03-08T08:27:09;3.00;58.60
8422;DHT22;4248;48.196;10.924;2024-03-08T08:29:34;3.00;58.30
8422;DHT22;4248;48.196;10.924;2024-03-08T08:32:00;3.10;58.30
8422;DHT22;4248;48.196;10.924;2024-03-08T08:34:26;3.00;58.20
8422;DHT22;4248;48.196;10.924;2024-03-08T08:36:52;3.00;58.50
8422;DHT22;4248;48.196;10.924;2024-03-08T08:39:18;3.20;58.40
8422;DHT22;4248;48.196;10.924;2024-03-08T08:41:44;3.20;58.10
8422;DHT22;4248;48.196;10.924;2024-03-08T08:44:10;3.30;57.80
8422;DHT22;4248;48.196;10.924;2024-03-08T08:46:38;3.40;57.70
8422;DHT22;4248;48.196;10.924;2024-03-08T08:49:04;3.50;56.90
8422;DHT22;4248;48.196;10.924;2024-03-08T08:51:30;3.60;56.60
8422;DHT22;4248;48.196;10.924;2024-03-08T08:53:56;3.70;56.20
8422;DHT22;4248;48.196;10.924;2024-03-08T08:56:22;3.70;56.10
8422;DHT22;4248;48.196;10.924;2024-03-08T08:58:47;3.70;55.90
8422;DHT22;4248;48.196;10.924;2024-03-08T09:01:14;3.80;55.90
8422;DHT22;4248;48.196;10.924;2024-03-08T09:03:40;4.00;55.50
8422;DHT22;4248;48.196;10.924;2024-03-08T09:06:09;4.30;54.40
8422;DHT22;4248;48.196;10.924;2024-03-08T09:08:38;4.40;53.40
8422;DHT22;4248;48.196;10.924;2024-03-08T09:11:04;4.30;52.20
8422;DHT22;4248;48.196;10.924;2024-03-08T09:13:30;4.20;52.70
8422;DHT22;4248;48.196;10.924;2024-03-08T09:15:56;4.30;52.90
8422;DHT22;4248;48.196;10.924;2024-03-08T09:18:22;4.50;52.20
8422;DHT22;4248;48.196;10.924;2024-03-08T09:20:49;4.60;51.50
8422;DHT22;4248;48.196;10.924;2024-03-08T09:23:15;4.70;50.60
8422;DHT22;4248;48.196;10.924;2024-03-08T09:25:42;4.80;50.40
8422;DHT22;4248;48.196;10.924;2024-03-08T09:28:08;4.80;50.40
8422;DHT22;4248;48.196;10.924;2024-03-08T09:30:34;4.90;49.70
8422;DHT22;4248;48.196;10.924;2024-03-08T09:33:00;5.00;48.90
8422;DHT22;4248;48.196;10.924;2024-03-08T09:35:26;5.10;48.40
8422;DHT22;4248;48.196;10.924;2024-03-08T09:37:52;5.30;48.60
8422;DHT22;4248;48.196;10.924;2024-03-08T09:40:19;5.40;47.70
8422;DHT22;4248;48.196;10.924;2024-03-08T09:42:48;5.40;46.30
8422;DHT22;4248;48.196;10.924;2024-03-08T09:45:13;5.50;46.40
8422;DHT22;4248;48.196;10.924;2024-03-08T09:47:45;5.60;46.10
8422;DHT22;4248;48.196;10.924;2024-03-08T09:50:12;5.90;45.20
8422;DHT22;4248;48.196;10.924;2024-03-08T09:52:47;6.10;44.50
8422;DHT22;4248;48.196;10.924;2024-03-08T09:55:13;6.20;43.80
8422;DHT22;4248;48.196;10.924;2024-03-08T09:57:43;6.40;43.10
8422;DHT22;4248;48.196;10.924;2024-03-08T10:00:28;6.50;42.50
8422;DHT22;4248;48.196;10.924;2024-03-08T10:02:54;6.50;42.10
8422;DHT22;4248;48.196;10.924;2024-03-08T10:05:25;6.40;42.30
8422;DHT22;4248;48.196;10.924;2024-03-08T10:07:51;6.20;42.10
8422;DHT22;4248;48.196;10.924;2024-03-08T10:10:16;6.20;42.70
8422;DHT22;4248;48.196;10.924;2024-03-08T10:12:42;6.20;43.30
8422;DHT22;4248;48.196;10.924;2024-03-08T10:15:08;6.20;42.90
8422;DHT22;4248;48.196;10.924;2024-03-08T10:17:36;5.90;43.10
8422;DHT22;4248;48.196;10.924;2024-03-08T10:20:02;5.80;43.10
8422;DHT22;4248;48.196;10.924;2024-03-08T10:22:29;5.60;43.70
8422;DHT22;4248;48.196;10.924;2024-03-08T10:24:55;5.50;45.00
8422;DHT22;4248;48.196;10.924;2024-03-08T10:27:21;5.40;45.30
8422;DHT22;4248;48.196;10.924;2024-03-08T10:29:49;5.40;45.40
8422;DHT22;4248;48.196;10.924;2024-03-08T10:32:17;5.40;45.10
8422;DHT22;4248;48.196;10.924;2024-03-08T10:34:42;5.40;45.00
8422;DHT22;4248;48.196;10.924;2024-03-08T10:37:15;5.50;44.80
8422;DHT22;4248;48.196;10.924;2024-03-08T10:39:47;5.70;45.00
8422;DHT22;4248;48.196;10.924;2024-03-08T10:42:22;5.80;44.70
8422;DHT22;4248;48.196;10.924;2024-03-08T10:44:56;5.90;44.20
8422;DHT22;4248;48.196;10.924;2024-03-08T10:47:27;6.00;43.70
8422;DHT22;4248;48.196;10.924;2024-03-08T10:52:29;6.50;43.30
8422;DHT22;4248;48.196;10.924;2024-03-08T10:54:56;6.70;42.30
8422;DHT22;4248;48.196;10.924;2024-03-08T10:57:22;6.70;41.50
8422;DHT22;4248;48.196;10.924;2024-03-08T10:59:49;6.90;41.60
8422;DHT22;4248;48.196;10.924;2024-03-08T11:02:17;6.90;40.10
8422;DHT22;4248;48.196;10.924;2024-03-08T11:04:47;6.90;39.60
8422;DHT22;4248;48.196;10.924;2024-03-08T11:07:15;6.90;39.90
8422;DHT22;4248;48.196;10.924;2024-03-08T11:09:43;7.00;38.50
8422;DHT22;4248;48.196;10.924;2024-03-08T11:12:27;7.00;38.90
8422;DHT22;4248;48.196;10.924;2024-03-08T11:15:09;7.10;38.50
8422;DHT22;4248;48.196;10.924;2024-03-08T11:17:40;7.20;37.70
8422;DHT22;4248;48.196;10.924;2024-03-08T11:20:19;7.40;37.20
8422;DHT22;4248;48.196;10.924;2024-03-08T11:30:42;7.50;36.70
8422;DHT22;4248;48.196;10.924;2024-03-08T11:33:11;7.60;36.60
8422;DHT22;4248;48.196;10.924;2024-03-08T11:35:38;7.60;36.50
8422;DHT22;4248;48.196;10.924;2024-03-08T11:38:04;7.60;36.50
8422;DHT22;4248;48.196;10.924;2024-03-08T11:40:30;7.60;36.30
8422;DHT22;4248;48.196;10.924;2024-03-08T11:42:58;7.70;36.10
8422;DHT22;4248;48.196;10.924;2024-03-08T11:45:24;7.80;35.70
8422;DHT22;4248;48.196;10.924;2024-03-08T11:47:50;7.80;35.50
8422;DHT22;4248;48.196;10.924;2024-03-08T11:50:16;7.90;35.20
8422;DHT22;4248;48.196;10.924;2024-03-08T11:52:44;7.90;34.50
8422;DHT22;4248;48.196;10.924;2024-03-08T11:55:11;7.80;33.90
8422;DHT22;4248;48.196;10.924;2024-03-08T11:57:38;7.90;33.90
8422;DHT22;4248;48.196;10.924;2024-03-08T12:00:04;7.90;33.90
8422;DHT22;4248;48.196;10.924;2024-03-08T12:02:35;8.00;33.80
8422;DHT22;4248;48.196;10.924;2024-03-08T12:05:03;8.00;33.50
8422;DHT22;4248;48.196;10.924;2024-03-08T12:07:30;8.00;33.40
8422;DHT22;4248;48.196;10.924;2024-03-08T12:10:17;8.10;32.90
8422;DHT22;4248;48.196;10.924;2024-03-08T12:12:48;8.10;32.20
8422;DHT22;4248;48.196;10.924;2024-03-08T12:15:19;8.10;32.20
8422;DHT22;4248;48.196;10.924;2024-03-08T12:17:45;8.20;32.30
8422;DHT22;4248;48.196;10.924;2024-03-08T12:20:26;8.20;31.60
8422;DHT22;4248;48.196;10.924;2024-03-08T12:22:54;8.30;31.50
8422;DHT22;4248;48.196;10.924;2024-03-08T12:25:26;8.30;31.20
8422;DHT22;4248;48.196;10.924;2024-03-08T12:27:52;8.30;31.50
8422;DHT22;4248;48.196;10.924;2024-03-08T12:32:56;8.30;30.00
8422;DHT22;4248;48.196;10.924;2024-03-08T12:35:23;8.40;30.40
8422;DHT22;4248;48.196;10.924;2024-03-08T12:37:51;8.40;29.90
8422;DHT22;4248;48.196;10.924;2024-03-08T12:40:18;8.50;30.00
8422;DHT22;4248;48.196;10.924;2024-03-08T12:42:45;8.50;29.60
8422;DHT22;4248;48.196;10.924;2024-03-08T12:45:13;8.60;29.10
8422;DHT22;4248;48.196;10.924;2024-03-08T12:47:39;8.60;28.90
8422;DHT22;4248;48.196;10.924;2024-03-08T12:50:10;8.70;28.90
8422;DHT22;4248;48.196;10.924;2024-03-08T12:52:36;8.80;28.30
8422;DHT22;4248;48.196;10.924;2024-03-08T12:55:02;8.80;28.10
8422;DHT22;4248;48.196;10.924;2024-03-08T12:57:28;8.90;28.10
8422;DHT22;4248;48.196;10.924;2024-03-08T12:59:54;8.90;27.60
8422;DHT22;4248;48.196;10.924;2024-03-08T13:02:20;9.00;27.80
8422;DHT22;4248;48.196;10.924;2024-03-08T13:04:46;9.10;27.70
8422;DHT22;4248;48.196;10.924;2024-03-08T13:07:21;9.10;27.40
8422;DHT22;4248;48.196;10.924;2024-03-08T13:09:47;9.10;26.50
8422;DHT22;4248;48.196;10.924;2024-03-08T13:12:12;9.10;26.20
8422;DHT22;4248;48.196;10.924;2024-03-08T13:14:40;9.20;26.30
8422;DHT22;4248;48.196;10.924;2024-03-08T13:17:06;9.10;26.20
8422;DHT22;4248;48.196;10.924;2024-03-08T13:19:36;9.10;26.20
8422;DHT22;4248;48.196;10.924;2024-03-08T13:22:03;9.20;26.20
8422;DHT22;4248;48.196;10.924;2024-03-08T13:24:32;9.20;25.80
8422;DHT22;4248;48.196;10.924;2024-03-08T13:26:59;9.20;25.50
8422;DHT22;4248;48.196;10.924;2024-03-08T13:29:25;9.20;26.30
8422;DHT22;4248;48.196;10.924;2024-03-08T13:31:51;9.30;26.50
8422;DHT22;4248;48.196;10.924;2024-03-08T13:34:18;9.30;26.40
8422;DHT22;4248;48.196;10.924;2024-03-08T13:36:44;9.30;26.40
8422;DHT22;4248;48.196;10.924;2024-03-08T13:39:11;9.30;26.40
8422;DHT22;4248;48.196;10.924;2024-03-08T13:41:46;9.40;26.50
8422;DHT22;4248;48.196;10.924;2024-03-08T13:44:12;9.40;26.50
8422;DHT22;4248;48.196;10.924;2024-03-08T13:46:38;9.50;26.50
8422;DHT22;4248;48.196;10.924;2024-03-08T13:49:05;9.40;26.50
8422;DHT22;4248;48.196;10.924;2024-03-08T13:51:31;9.40;26.50
8422;DHT22;4248;48.196;10.924;2024-03-08T13:53:57;9.50;26.50
8422;DHT22;4248;48.196;10.924;2024-03-08T13:56:23;9.50;26.10
8422;DHT22;4248;48.196;10.924;2024-03-08T13:58:49;9.40;26.20
8422;DHT22;4248;48.196;10.924;2024-03-08T14:01:14;9.40;26.10
8422;DHT22;4248;48.196;10.924;2024-03-08T14:03:40;9.40;26.50
8422;DHT22;4248;48.196;10.924;2024-03-08T14:06:07;9.50;25.70
8422;DHT22;4248;48.196;10.924;2024-03-08T14:08:32;9.50;26.60
8422;DHT22;4248;48.196;10.924;2024-03-08T14:10:58;9.50;26.60
8422;DHT22;4248;48.196;10.924;2024-03-08T14:13:24;9.50;26.50
8422;DHT22;4248;48.196;10.924;2024-03-08T14:15:50;9.50;26.30
8422;DHT22;4248;48.196;10.924;2024-03-08T14:18:17;9.40;25.70
8422;DHT22;4248;48.196;10.924;2024-03-08T14:20:42;9.40;25.30
8422;DHT22;4248;48.196;10.924;2024-03-08T14:23:09;9.40;25.20
8422;DHT22;4248;48.196;10.924;2024-03-08T14:25:35;9.40;25.30
8422;DHT22;4248;48.196;10.924;2024-03-08T14:28:01;9.50;25.80
8422;DHT22;4248;48.196;10.924;2024-03-08T14:30:29;9.50;25.30
8422;DHT22;4248;48.196;10.924;2024-03-08T14:33:07;9.50;24.70
8422;DHT22;4248;48.196;10.924;2024-03-08T14:35:36;9.50;25.20
8422;DHT22;4248;48.196;10.924;2024-03-08T14:38:02;9.50;25.60
8422;DHT22;4248;48.196;10.924;2024-03-08T14:40:28;9.50;25.10
8422;DHT22;4248;48.196;10.924;2024-03-08T14:42:56;9.50;24.90
8422;DHT22;4248;48.196;10.924;2024-03-08T14:45:21;9.40;24.90
8422;DHT22;4248;48.196;10.924;2024-03-08T14:47:50;9.40;25.00
8422;DHT22;4248;48.196;10.924;2024-03-08T14:50:19;9.40;24.30
8422;DHT22;4248;48.196;10.924;2024-03-08T14:52:46;9.40;23.80
8422;DHT22;4248;48.196;10.924;2024-03-08T14:55:15;9.30;24.00
8422;DHT22;4248;48.196;10.924;2024-03-08T14:57:41;9.30;23.40
8422;DHT22;4248;48.196;10.924;2024-03-08T15:00:08;9.30;23.50
8422;DHT22;4248;48.196;10.924;2024-03-08T15:02:42;9.40;23.60
8422;DHT22;4248;48.196;10.924;2024-03-08T15:05:07;9.30;22.90
8422;DHT22;4248;48.196;10.924;2024-03-08T15:07:39;9.30;23.20
8422;DHT22;4248;48.196;10.924;2024-03-08T15:10:08;9.30;23.30
8422;DHT22;4248;48.196;10.924;2024-03-08T15:12:39;9.30;23.00
8422;DHT22;4248;48.196;10.924;2024-03-08T15:15:07;9.30;23.30
8422;DHT22;4248;48.196;10.924;2024-03-08T15:17:34;9.30;23.10
8422;DHT22;4248;48.196;10.924;2024-03-08T15:20:03;9.30;23.00
8422;DHT22;4248;48.196;10.924;2024-03-08T15:22:29;9.20;22.30
8422;DHT22;4248;48.196;10.924;2024-03-08T15:24:54;9.20;22.50
8422;DHT22;4248;48.196;10.924;2024-03-08T15:27:23;9.10;23.00
8422;DHT22;4248;48.196;10.924;2024-03-08T15:29:49;9.10;22.30
8422;DHT22;4248;48.196;10.924;2024-03-08T15:32:17;9.10;22.30
8422;DHT22;4248;48.196;10.924;2024-03-08T15:34:46;9.10;22.10
8422;DHT22;4248;48.196;10.924;2024-03-08T15:37:11;9.10;21.90
8422;DHT22;4248;48.196;10.924;2024-03-08T15:39:43;9.10;21.40
8422;DHT22;4248;48.196;10.924;2024-03-08T15:42:08;9.10;21.60
8422;DHT22;4248;48.196;10.924;2024-03-08T15:44:37;9.00;21.40
8422;DHT22;4248;48.196;10.924;2024-03-08T15:47:04;9.00;21.10
8422;DHT22;4248;48.196;10.924;2024-03-08T15:49:32;9.00;21.50
8422;DHT22;4248;48.196;10.924;2024-03-08T15:51:58;9.00;21.80
8422;DHT22;4248;48.196;10.924;2024-03-08T15:54:24;9.00;21.90
8422;DHT22;4248;48.196;10.924;2024-03-08T15:56:50;9.00;21.80
8422;DHT22;4248;48.196;10.924;2024-03-08T15:59:16;9.00;21.90
8422;DHT22;4248;48.196;10.924;2024-03-08T16:01:42;8.90;21.60
8422;DHT22;4248;48.196;10.924;2024-03-08T16:04:14;8.80;21.80
8422;DHT22;4248;48.196;10.924;2024-03-08T16:06:39;8.80;22.00
8422;DHT22;4248;48.196;10.924;2024-03-08T16:09:06;8.80;23.00
8422;DHT22;4248;48.196;10.924;2024-03-08T16:11:38;8.70;21.90
8422;DHT22;4248;48.196;10.924;2024-03-08T16:14:04;8.60;21.70
8422;DHT22;4248;48.196;10.924;2024-03-08T16:16:30;8.60;21.90